Time;durP1;ratioP1;P1;durP2;ratioP2;P2;SDS_P1;SDS_P2;PMS_P1;PMS_P2;Temp;Humidity;BMP_temperature;BMP_pressure;BME280_temperature;BME280_humidity;BME280_pressure;Samples;Min_cycle;Max_cycle;Signal;HPM_P1;HPM_P2
2022/11/13 00:01:19;;;;;;;163.57;131.13;;;5.50;99.90;;;5.41;100.00;101704.31;4967034;28;20253;-76
2022/11/13 00:03:46;;;;;;;158.32;126.68;;;5.40;99.90;;;5.32;100.00;101698.59;4961499;28;20334;-76
2022/11/13 00:06:15;;;;;;;154.82;125.63;;;5.40;99.90;;;5.35;100.00;101703.09;4967607;28;20251;-75
2022/11/13 00:08:43;;;;;;;167.63;129.30;;;5.40;99.90;;;5.36;100.00;101692.69;4965121;28;20317;-75
2022/11/13 00:11:17;;;;;;;158.32;126.40;;;5.40;99.90;;;5.42;100.00;101694.72;4961495;28;20293;-75
2022/11/13 00:13:45;;;;;;;165.40;130.70;;;5.40;99.90;;;5.30;100.00;101691.47;4967949;28;20232;-75
2022/11/13 00:16:19;;;;;;;165.65;128.70;;;5.40;99.90;;;5.30;100.00;101695.00;4967801;28;20233;-75
2022/11/13 00:18:47;;;;;;;234.95;157.45;;;5.40;99.90;;;5.39;100.00;101708.56;5513360;23;20236;-76
2022/11/13 00:21:21;;;;;;;150.10;123.25;;;5.40;99.90;;;5.26;100.00;101698.28;4987660;28;20320;-77
2022/11/13 00:23:50;;;;;;;151.00;123.20;;;5.20;99.90;;;5.20;100.00;101683.94;4988800;28;20228;-77
2022/11/13 00:26:29;;;;;;;151.63;123.88;;;5.40;99.90;;;5.13;100.00;101681.00;4988575;28;20283;-77
2022/11/13 00:29:02;;;;;;;147.70;120.35;;;5.20;99.90;;;5.20;100.00;101690.13;4991175;28;20231;-77
2022/11/13 00:31:29;;;;;;;165.10;126.03;;;5.20;99.90;;;5.24;100.00;101692.06;4986043;28;20293;-77
2022/11/13 00:33:59;;;;;;;146.52;121.25;;;5.20;99.90;;;5.07;100.00;101671.94;5029879;23;20287;-82
2022/11/13 00:36:46;;;;;;;153.43;120.13;;;5.20;99.90;;;5.10;100.00;101677.34;4995084;28;20228;-85
2022/11/13 00:39:13;;;;;;;145.55;117.85;;;5.10;99.90;;;5.02;100.00;101671.69;4979469;28;20308;-83
2022/11/13 00:41:41;;;;;;;163.82;124.47;;;5.10;99.90;;;5.09;100.00;101683.41;4980323;28;20240;-83
2022/11/13 00:44:08;;;;;;;154.05;123.18;;;5.10;99.90;;;4.95;100.00;101663.44;4971718;28;20233;-82
2022/11/13 00:46:35;;;;;;;166.82;126.07;;;5.00;99.90;;;4.99;100.00;101668.03;4969084;28;20253;-82
2022/11/13 00:49:03;;;;;;;148.35;120.00;;;5.00;99.90;;;5.08;100.00;101672.00;4958132;28;20249;-82
2022/11/13 00:51:31;;;;;;;147.95;118.57;;;5.10;99.90;;;5.14;100.00;101685.44;4961597;28;20311;-85
2022/11/13 00:53:58;;;;;;;156.82;121.60;;;5.20;99.90;;;5.07;100.00;101678.06;4968579;28;20232;-83
2022/11/13 00:56:25;;;;;;;155.85;121.65;;;5.10;99.90;;;5.04;100.00;101663.91;4968211;28;20242;-82
2022/11/13 00:58:52;;;;;;;153.23;119.63;;;5.00;99.90;;;5.09;100.00;101673.81;4967873;28;20259;-84
2022/11/13 01:01:20;;;;;;;167.57;125.25;;;5.10;99.90;;;5.12;100.00;101678.31;4969082;28;20232;-83
2022/11/13 01:03:47;;;;;;;164.13;125.38;;;;;;;5.15;100.00;101673.22;4968060;28;20235;-83
2022/11/13 01:06:24;;;;;;;154.70;119.95;;;5.20;99.90;;;5.22;100.00;101682.31;4966694;28;20296;-83
2022/11/13 01:08:58;;;;;;;156.23;117.70;;;5.20;99.90;;;5.01;100.00;101661.13;4972818;28;20251;-85
2022/11/13 01:11:29;;;;;;;155.57;119.75;;;5.10;99.90;;;5.22;100.00;101684.94;4968465;28;20299;-85
2022/11/13 01:13:57;;;;;;;149.50;118.32;;;5.10;99.90;;;5.20;100.00;101684.88;4977527;28;20254;-85
2022/11/13 01:16:26;;;;;;;143.57;118.22;;;5.20;99.90;;;5.28;100.00;101693.13;4969344;28;20235;-84
2022/11/13 01:18:55;;;;;;;153.48;120.00;;;5.20;99.90;;;5.26;100.00;101689.53;4970981;28;20704;-85
2022/11/13 01:21:26;;;;;;;150.10;121.10;;;5.20;99.90;;;5.23;100.00;101676.25;4961405;28;20244;-84
2022/11/13 01:23:55;;;;;;;150.55;121.45;;;5.30;99.90;;;5.27;100.00;101684.34;4967891;28;20240;-85
2022/11/13 01:26:27;;;;;;;144.50;119.97;;;5.30;99.90;;;5.23;100.00;101676.25;4966347;28;20700;-86
2022/11/13 01:28:56;;;;;;;132.07;113.00;;;5.20;99.90;;;5.23;100.00;101674.53;4970441;28;20241;-89
2022/11/13 01:31:27;;;;;;;150.30;123.85;;;5.30;99.90;;;5.29;100.00;101671.31;4963042;28;20295;-85
2022/11/13 01:33:55;;;;;;;133.35;116.55;;;5.30;99.90;;;5.25;100.00;101672.88;4968941;28;20252;-84
2022/11/13 01:36:26;;;;;;;137.27;117.75;;;5.30;99.90;;;5.28;100.00;101677.38;4965143;28;20240;-86
2022/11/13 01:38:54;;;;;;;128.90;114.45;;;5.30;99.90;;;5.30;100.00;101681.88;4969169;28;20241;-85
2022/11/13 01:41:29;;;;;;;146.70;118.70;;;5.30;99.90;;;5.35;100.00;101683.00;4968013;28;20236;-84
2022/11/13 01:43:59;;;;;;;128.10;114.03;;;5.30;99.90;;;5.36;100.00;101671.69;4960593;28;20232;-84
2022/11/13 01:46:33;;;;;;;131.43;114.80;;;5.40;99.90;;;5.36;100.00;101671.69;4966954;28;20229;-85
2022/11/13 01:49:09;;;;;;;135.13;114.65;;;5.40;99.90;;;5.48;100.00;101681.91;4965338;28;20237;-88
2022/11/13 01:51:59;;;;;;;141.38;120.45;;;5.40;99.90;;;5.35;100.00;101669.00;4966465;28;20256;-85
2022/11/13 01:54:36;;;;;;;139.38;116.07;;;5.40;99.90;;;5.31;100.00;101665.31;4965725;28;20316;-85
2022/11/13 01:57:04;;;;;;;138.05;115.88;;;5.30;99.90;;;5.39;100.00;101674.47;4949461;28;20316;-85
2022/11/13 01:59:39;;;;;;;138.55;117.15;;;5.40;99.90;;;5.37;100.00;101672.59;4967042;28;20729;-84
2022/11/13 02:02:06;;;;;;;130.88;116.20;;;5.40;99.90;;;5.43;100.00;101672.91;4961895;28;20282;-85
2022/11/13 02:04:34;;;;;;;147.55;118.00;;;5.40;99.90;;;5.33;100.00;101657.53;4966256;28;20255;-84
2022/11/13 02:07:07;;;;;;;144.98;119.78;;;5.40;99.90;;;5.31;100.00;101652.22;4961496;28;20268;-84
2022/11/13 02:09:49;;;;;;;138.85;117.25;;;5.40;99.90;;;5.29;100.00;101656.47;4967362;28;20233;-86
2022/11/13 02:12:29;;;;;;;143.07;118.57;;;4.70;99.90;;;5.33;100.00;101652.28;4981473;28;20248;-84
2022/11/13 02:14:58;;;;;;;139.73;118.45;;;5.30;99.90;;;5.29;100.00;101639.84;4962932;28;20255;-85
2022/11/13 02:17:51;;;;;;;140.30;117.05;;;5.30;99.90;;;5.18;100.00;101636.66;4969615;28;20252;-84
2022/11/13 02:20:48;;;;;;;153.20;120.55;;;5.20;99.90;;;5.20;100.00;101636.72;4961079;28;20293;-83
2022/11/13 02:23:48;;;;;;;154.15;118.18;;;5.20;99.90;;;5.15;100.00;101619.06;4966166;28;20320;-86
2022/11/13 02:26:19;;;;;;;161.23;119.35;;;5.20;99.90;;;5.11;100.00;101614.47;4985489;28;20297;-85
2022/11/13 02:28:46;;;;;;;159.45;119.45;;;5.10;99.90;;;5.00;100.00;101604.28;4968684;28;20280;-85
2022/11/13 02:31:14;;;;;;;152.23;118.93;;;5.10;99.90;;;5.10;100.00;101623.16;4965697;28;20343;-86
2022/11/13 02:33:41;;;;;;;155.43;119.60;;;5.10;99.90;;;5.07;100.00;101607.28;4971625;28;20229;-85
2022/11/13 02:36:11;;;;;;;153.90;119.70;;;5.10;99.90;;;5.02;100.00;101598.28;4972909;28;20264;-84
2022/11/13 02:38:40;;;;;;;142.00;114.28;;;5.00;99.90;;;5.01;100.00;101596.47;4968294;28;20264;-84
2022/11/13 02:41:07;;;;;;;143.90;117.93;;;5.00;99.90;;;5.20;100.00;101615.75;4971885;28;20228;-85
2022/11/13 02:43:34;;;;;;;141.68;117.95;;;;;;;5.14;100.00;101605.84;4971141;28;20264;-85
2022/11/13 02:46:02;;;;;;;191.48;133.50;;;5.10;99.90;;;5.12;100.00;101602.25;4963571;28;20360;-84
2022/11/13 02:48:29;;;;;;;144.93;119.93;;;5.20;99.90;;;5.10;100.00;101601.28;4959897;28;20244;-84
2022/11/13 02:50:56;;;;;;;134.90;115.32;;;5.20;99.90;;;5.22;100.00;101612.41;4967806;28;20311;-84
2022/11/13 02:53:24;;;;;;;140.95;117.68;;;5.20;99.90;;;5.17;100.00;101607.72;4966453;28;20225;-87
2022/11/13 02:55:51;;;;;;;142.50;118.15;;;5.20;99.90;;;5.17;100.00;101606.00;4973304;28;20229;-84
2022/11/13 02:58:18;;;;;;;151.48;121.95;;;;;;;5.20;100.00;101614.06;4979102;28;20244;-84
2022/11/13 03:00:45;;;;;;;141.25;117.43;;;5.20;99.90;;;5.18;100.00;101607.81;4971023;28;20225;-85
2022/11/13 03:03:12;;;;;;;138.77;116.78;;;5.20;99.90;;;5.25;100.00;101612.56;4972547;28;20291;-85
2022/11/13 03:05:40;;;;;;;135.07;116.45;;;;;;;5.19;100.00;101606.09;4969727;28;20334;-84
2022/11/13 03:08:07;;;;;;;139.55;117.72;;;;;;;5.17;100.00;101598.13;4970510;28;20268;-85
2022/11/13 03:10:35;;;;;;;152.93;122.57;;;5.20;99.90;;;5.14;100.00;101595.38;4969665;28;20229;-86
2022/11/13 03:13:02;;;;;;;137.38;117.68;;;5.20;99.90;;;5.23;100.00;101611.59;4968728;28;20280;-88
2022/11/13 03:15:30;;;;;;;144.43;120.97;;;;;;;5.14;100.00;101593.66;4971562;28;20233;-84
2022/11/13 03:18:01;;;;;;;138.35;117.65;;;5.20;99.90;;;5.20;100.00;101597.41;4969107;28;20764;-85
2022/11/13 03:20:29;;;;;;;130.25;115.93;;;5.10;99.90;;;5.20;100.00;101594.78;4972304;28;20237;-85
2022/11/13 03:22:56;;;;;;;129.05;112.80;;;5.20;99.90;;;5.18;100.00;101597.31;4971040;28;20291;-84
2022/11/13 03:25:23;;;;;;;128.40;114.38;;;;;;;5.22;100.00;101595.78;4975347;28;20295;-84
2022/11/13 03:27:50;;;;;;;149.45;121.15;;;5.20;99.90;;;5.10;100.00;101586.47;4968556;28;20228;-87
2022/11/13 03:30:18;;;;;;;144.80;120.07;;;5.20;99.90;;;5.12;100.00;101594.41;4973699;28;20229;-84
2022/11/13 03:32:45;;;;;;;130.52;114.55;;;5.20;99.90;;;5.09;100.00;101587.28;4974030;28;20229;-85
2022/11/13 03:35:13;;;;;;;140.07;117.90;;;;;;;5.13;100.00;101588.31;4971928;28;20288;-85
2022/11/13 03:37:40;;;;;;;142.07;118.55;;;5.10;99.90;;;4.92;100.00;101574.16;4968689;28;20311;-84
2022/11/13 03:40:08;;;;;;;134.68;114.18;;;5.00;99.90;;;4.95;100.00;101574.31;4973776;28;20311;-84
2022/11/13 03:42:35;;;;;;;160.38;126.25;;;;;;;4.83;100.00;101567.63;4964279;28;20228;-85
2022/11/13 03:45:03;;;;;;;130.35;114.47;;;4.90;99.90;;;4.91;100.00;101570.63;4968954;28;20775;-84
2022/11/13 03:47:30;;;;;;;131.25;114.63;;;;;;;4.79;100.00;101560.44;4966822;28;20292;-85
2022/11/13 03:49:57;;;;;;;126.40;111.90;;;;;;;4.95;100.00;101574.31;4961179;28;20233;-86
2022/11/13 03:52:25;;;;;;;139.27;114.75;;;4.90;99.90;;;4.80;100.00;101551.75;4966879;28;20241;-84
2022/11/13 03:54:52;;;;;;;133.95;114.72;;;;;;;4.84;100.00;101558.06;4963208;28;20268;-85
2022/11/13 03:57:19;;;;;;;138.57;110.57;;;4.80;99.90;;;4.70;100.00;101540.75;4971107;28;20291;-84
2022/11/13 03:59:46;;;;;;;136.48;115.78;;;4.80;99.90;;;4.76;100.00;101543.66;4965940;28;20225;-84
2022/11/13 04:02:13;;;;;;;142.98;113.82;;;4.80;99.90;;;4.85;100.00;101551.09;4966111;28;20240;-86
2022/11/13 04:04:40;;;;;;;140.98;114.65;;;4.80;99.90;;;4.78;100.00;101544.63;4969495;28;20236;-84
2022/11/13 04:07:08;;;;;;;148.43;113.80;;;;;;;4.65;100.00;101537.88;4970288;28;20225;-84
2022/11/13 04:09:35;;;;;;;145.98;114.65;;;;;;;4.66;100.00;101533.53;4967761;28;20308;-84
2022/11/13 04:12:03;;;;;;;150.43;115.15;;;4.70;99.90;;;4.73;100.00;101547.03;4967438;28;20279;-86
2022/11/13 04:14:30;;;;;;;154.35;116.90;;;4.70;99.90;;;4.91;100.00;101564.50;4970210;28;20232;-86
2022/11/13 04:16:58;;;;;;;142.85;114.10;;;4.90;99.90;;;4.91;100.00;101559.25;4972862;28;20225;-84
2022/11/13 04:19:25;;;;;;;137.55;113.47;;;;;;;4.81;100.00;101552.66;4964773;28;20225;-84
2022/11/13 04:21:53;;;;;;;145.60;112.78;;;;;;;4.67;100.00;101546.72;4962517;28;20296;-84
2022/11/13 04:24:20;;;;;;;145.93;112.88;;;;;;;4.58;100.00;101543.63;4977295;28;20287;-85
2022/11/13 04:26:48;;;;;;;145.80;112.80;;;;;;;4.58;100.00;101551.50;4973475;28;20263;-83
2022/11/13 04:29:15;;;;;;;157.23;115.07;;;4.60;99.90;;;4.69;100.00;101547.69;4968354;28;20240;-84
2022/11/13 04:31:42;;;;;;;164.48;116.75;;;4.70;99.90;;;4.62;100.00;101542.97;4967295;28;20236;-84
2022/11/13 04:34:09;;;;;;;154.05;113.45;;;4.70;99.90;;;4.62;100.00;101537.72;4968549;28;20294;-85
2022/11/13 04:36:36;;;;;;;149.25;112.50;;;4.70;99.90;;;4.57;100.00;101520.88;4962433;28;20244;-84
2022/11/13 04:39:04;;;;;;;134.23;107.53;;;4.70;99.90;;;4.68;100.00;101529.28;4968266;28;20260;-83
2022/11/13 04:44:21;;;;;;;151.35;112.88;;;4.60;99.90;;;4.58;100.00;101519.16;4967224;28;20235;-84
2022/11/13 04:46:48;;;;;;;147.25;109.68;;;4.70;99.90;;;4.55;100.00;101522.53;4961626;28;20236;-87
2022/11/13 04:49:15;;;;;;;142.25;111.38;;;4.70;99.90;;;4.51;100.00;101517.97;4968216;28;20257;-83
2022/11/13 04:51:42;;;;;;;142.05;110.63;;;4.60;99.90;;;4.55;100.00;101517.28;4969588;28;20236;-83
2022/11/13 04:54:09;;;;;;;146.20;110.43;;;4.60;99.90;;;4.56;100.00;101520.81;4964333;28;20272;-84
2022/11/13 04:56:36;;;;;;;151.90;111.63;;;4.60;99.90;;;4.53;100.00;101516.31;4969856;28;20288;-83
2022/11/13 04:59:03;;;;;;;145.70;109.30;;;4.80;99.90;;;4.51;100.00;101510.09;4980474;28;20221;-84
2022/11/13 05:01:30;;;;;;;146.15;112.82;;;4.60;99.90;;;4.50;100.00;101513.53;4962780;28;20844;-85
2022/11/13 05:03:58;;;;;;;139.00;106.40;;;4.60;99.90;;;4.62;100.00;101526.34;4969972;28;20229;-84
2022/11/13 05:06:24;;;;;;;134.93;104.43;;;4.60;99.90;;;4.61;100.00;101511.47;4971917;28;20252;-84
2022/11/13 05:08:52;;;;;;;143.63;109.75;;;4.60;99.90;;;4.58;100.00;101516.53;4966353;28;20233;-84
2022/11/13 05:11:19;;;;;;;147.75;108.18;;;4.60;99.90;;;4.53;100.00;101505.84;4974168;28;20283;-84
2022/11/13 05:13:46;;;;;;;141.70;108.75;;;4.60;99.90;;;4.52;100.00;101511.00;4965260;28;20283;-84
2022/11/13 05:16:14;;;;;;;143.23;107.93;;;4.60;99.90;;;4.44;100.00;101495.78;4966521;28;20229;-84
2022/11/13 05:18:41;;;;;;;146.02;110.53;;;;;;;4.48;100.00;101494.22;4962135;28;20237;-83
2022/11/13 05:21:09;;;;;;;146.68;112.20;;;;;;;4.47;100.00;101490.72;4969665;28;20228;-84
2022/11/13 05:23:36;;;;;;;144.32;110.43;;;4.60;99.90;;;4.52;100.00;101490.94;4962770;28;20327;-84
2022/11/13 05:26:10;;;;;;;134.23;104.50;;;4.60;99.90;;;4.53;100.00;101492.75;4964237;28;20268;-86
2022/11/13 05:28:38;;;;;;;151.88;111.35;;;4.60;99.90;;;4.56;100.00;101492.00;4965732;28;20278;-87
2022/11/13 05:31:12;;;;;;;136.18;106.68;;;4.60;99.90;;;4.55;100.00;101493.72;4964166;28;20225;-84
2022/11/13 05:33:41;;;;;;;135.70;108.85;;;4.70;99.90;;;4.68;100.00;101506.59;4971732;28;20756;-84
2022/11/13 05:36:13;;;;;;;140.55;109.88;;;4.70;99.90;;;4.62;100.00;101501.06;4960055;28;20265;-84
2022/11/13 05:38:41;;;;;;;133.60;106.00;;;4.70;99.90;;;4.67;100.00;101504.81;4969746;28;20534;-86
2022/11/13 05:41:17;;;;;;;126.70;103.47;;;4.70;99.90;;;4.60;100.00;101496.56;4968766;28;20303;-84
2022/11/13 05:43:45;;;;;;;139.80;107.53;;;4.60;99.90;;;4.46;100.00;101491.53;4967531;28;20229;-85
2022/11/13 05:46:17;;;;;;;156.82;116.18;;;4.60;99.90;;;4.55;100.00;101490.19;4971019;28;20226;-84
2022/11/13 05:48:46;;;;;;;132.93;103.72;;;4.60;99.90;;;4.57;100.00;101489.44;4968563;28;20316;-84
2022/11/13 05:51:17;;;;;;;133.82;105.10;;;4.60;99.90;;;4.66;100.00;101491.63;4966482;28;20229;-86
2022/11/13 05:53:44;;;;;;;136.27;106.40;;;4.90;99.90;;;4.62;100.00;101485.34;4961511;28;20300;-85
2022/11/13 05:56:18;;;;;;;140.55;109.32;;;4.70;99.90;;;4.65;100.00;101484.59;4964338;28;20253;-84
2022/11/13 05:58:46;;;;;;;137.23;106.63;;;4.70;99.90;;;4.56;100.00;101466.69;4966602;28;20323;-84
2022/11/13 06:01:22;;;;;;;133.25;104.43;;;4.60;99.90;;;4.58;100.00;101472.00;4965946;28;20243;-84
2022/11/13 06:04:02;;;;;;;131.05;105.43;;;4.60;99.90;;;4.66;100.00;101479.41;4960163;28;20225;-84
2022/11/13 06:06:47;;;;;;;150.45;111.95;;;4.70;99.90;;;4.68;100.00;101469.00;4965911;28;20244;-83
2022/11/13 06:09:32;;;;;;;132.52;103.78;;;4.70;99.90;;;4.60;100.00;101471.25;4963639;28;20681;-84
2022/11/13 06:11:59;;;;;;;143.55;112.85;;;4.70;99.90;;;4.62;100.00;101453.91;4954419;28;20659;-86
2022/11/13 06:14:27;;;;;;;167.20;121.93;;;4.50;99.90;;;4.49;100.00;101452.38;4966753;28;20233;-84
2022/11/13 06:16:54;;;;;;;132.02;108.80;;;4.60;99.90;;;4.48;100.00;101452.31;4966254;28;20240;-87
2022/11/13 06:19:21;;;;;;;128.70;107.68;;;;;;;4.53;100.00;101448.19;4964095;28;20241;-85
2022/11/13 06:21:48;;;;;;;129.02;107.40;;;4.60;99.90;;;4.51;100.00;101449.84;4961027;28;20606;-85
2022/11/13 06:24:15;;;;;;;121.85;103.72;;;4.60;99.90;;;4.55;100.00;101450.91;4962175;28;20260;-89
2022/11/13 06:26:43;;;;;;;144.80;112.63;;;;;;;4.57;100.00;101458.00;4977782;28;20227;-85
2022/11/13 06:29:11;;;;;;;137.82;110.43;;;4.60;99.90;;;4.59;100.00;101458.09;4964200;28;20236;-84
2022/11/13 06:31:39;;;;;;;129.82;108.03;;;;;;;4.45;100.00;101445.22;4975673;28;20264;-84
2022/11/13 06:34:07;;;;;;;143.30;113.70;;;;;;;4.46;100.00;101440.88;4972929;28;20233;-85
2022/11/13 06:36:36;;;;;;;121.00;102.82;;;3.60;99.90;;;4.52;100.00;101446.41;4964539;28;20222;-84
2022/11/13 06:39:07;;;;;;;126.30;106.60;;;4.50;99.90;;;4.62;100.00;101453.91;4965556;28;20253;-84
2022/11/13 06:41:38;;;;;;;133.15;107.22;;;4.70;99.90;;;4.69;100.00;101455.09;4970298;28;20236;-85
2022/11/13 06:44:05;;;;;;;141.10;113.50;;;4.60;99.90;;;4.68;100.00;101450.69;4966099;28;20231;-85
2022/11/13 06:46:33;;;;;;;129.50;111.10;;;;;;;4.57;100.00;101438.78;4963764;28;20237;-86
2022/11/13 06:49:00;;;;;;;127.22;113.28;;;4.70;99.90;;;4.68;100.00;101451.56;4963934;28;20245;-84
2022/11/13 06:51:30;;;;;;;122.65;108.40;;;4.70;99.90;;;4.66;100.00;101454.94;4967166;28;20736;-84
2022/11/13 06:53:57;;;;;;;133.25;116.05;;;4.60;99.90;;;4.59;100.00;101437.13;4972856;28;20224;-85
2022/11/13 06:56:25;;;;;;;133.85;109.55;;;4.70;99.90;;;4.68;100.00;101446.34;4972341;28;20237;-84
2022/11/13 06:58:55;;;;;;;144.38;112.63;;;4.70;99.90;;;4.68;100.00;101451.56;4971955;28;20237;-84
2022/11/13 07:01:25;;;;;;;135.63;108.78;;;4.80;99.90;;;4.75;100.00;101450.16;4966057;28;20253;-85
2022/11/13 07:03:53;;;;;;;132.88;109.72;;;;;;;4.72;100.00;101450.00;4965868;28;20386;-84
2022/11/13 07:06:23;;;;;;;150.30;113.38;;;4.80;99.90;;;4.72;100.00;101457.88;4967164;28;20233;-84
2022/11/13 07:08:50;;;;;;;143.18;112.75;;;;;;;4.72;100.00;101448.28;4964687;28;20229;-86
2022/11/13 07:11:21;;;;;;;153.63;116.72;;;4.80;99.90;;;4.78;100.00;101455.53;4969916;28;20235;-84
2022/11/13 07:13:49;;;;;;;139.82;109.35;;;4.80;99.90;;;4.82;100.00;101452.25;4967834;28;20235;-84
2022/11/13 07:16:17;;;;;;;148.48;112.85;;;4.90;99.90;;;4.89;100.00;101459.56;4974100;28;20240;-85
2022/11/13 07:18:52;;;;;;;149.18;112.80;;;4.90;99.90;;;4.79;100.00;101447.75;4964620;28;20225;-85
2022/11/13 07:21:21;;;;;;;137.75;106.88;;;4.90;99.90;;;4.77;100.00;101458.97;4971802;28;20240;-84
2022/11/13 07:23:49;;;;;;;142.93;111.38;;;4.80;99.90;;;4.75;100.00;101456.28;4970735;28;20228;-84
2022/11/13 07:26:16;;;;;;;135.70;110.38;;;;;;;4.79;100.00;101450.38;4973420;28;20243;-85
2022/11/13 07:28:44;;;;;;;141.52;110.07;;;;;;;4.78;100.00;101442.44;4971387;28;20288;-85
2022/11/13 07:31:13;;;;;;;154.38;116.60;;;4.80;99.90;;;4.85;100.00;101448.88;4964942;28;20229;-85
2022/11/13 07:33:41;;;;;;;156.68;118.03;;;;;;;4.89;100.00;101453.44;4965188;28;20225;-84
2022/11/13 07:36:09;;;;;;;129.48;110.22;;;4.90;99.90;;;4.84;100.00;101450.59;4971053;28;20224;-85
2022/11/13 07:38:37;;;;;;;128.40;109.78;;;;;;;4.92;100.00;101467.59;4967966;28;20303;-85
2022/11/13 07:41:05;;;;;;;134.82;111.47;;;5.00;99.90;;;4.99;100.00;101460.91;4962306;28;20238;-86
2022/11/13 07:43:32;;;;;;;129.35;108.53;;;5.00;99.90;;;5.04;100.00;101464.66;4973255;28;20229;-85
2022/11/13 07:46:00;;;;;;;138.57;112.88;;;5.10;99.90;;;4.97;100.00;101452.97;4958298;28;20268;-84
2022/11/13 07:48:28;;;;;;;146.57;116.63;;;;;;;4.95;100.00;101451.09;4963514;28;20252;-85
2022/11/13 07:51:00;;;;;;;128.77;111.90;;;5.00;99.90;;;4.96;100.00;101458.16;4958461;28;20225;-84
2022/11/13 07:53:27;;;;;;;121.35;108.22;;;5.00;99.90;;;5.02;100.00;101456.72;4967984;28;20287;-88
2022/11/13 07:55:54;;;;;;;124.15;111.43;;;5.00;99.90;;;4.98;100.00;101452.16;4962596;28;20236;-85
2022/11/13 07:58:22;;;;;;;146.75;122.88;;;5.00;99.90;;;4.97;100.00;101457.31;4965550;28;20291;-85
2022/11/13 08:00:49;;;;;;;142.20;111.38;;;;;;;5.07;100.00;101468.31;4928444;28;20244;-85
2022/11/13 08:03:17;;;;;;;131.07;113.47;;;5.10;99.90;;;5.01;100.00;101459.25;4951542;28;20951;-84
2022/11/13 08:05:44;;;;;;;123.57;108.75;;;5.00;99.90;;;4.87;100.00;101449.84;4944915;28;20318;-84
2022/11/13 08:08:13;;;;;;;137.18;113.63;;;4.90;99.90;;;4.82;100.00;101439.13;4965088;28;20225;-84
2022/11/13 08:10:41;;;;;;;124.57;109.93;;;4.90;99.90;;;4.92;100.00;101454.47;4963977;28;20241;-84
2022/11/13 08:13:10;;;;;;;134.82;114.30;;;4.90;99.90;;;5.03;100.00;101453.25;4958693;28;20600;-84
2022/11/13 08:15:38;;;;;;;153.57;119.63;;;5.00;99.90;;;5.08;100.00;101461.34;4962069;28;20311;-85
2022/11/13 08:18:06;;;;;;;139.80;112.85;;;;;;;5.10;100.00;101460.59;4955304;28;20289;-86
2022/11/13 08:20:33;;;;;;;123.68;110.20;;;;;;;5.15;100.00;101463.44;4959708;28;20249;-84
2022/11/13 08:23:03;;;;;;;140.35;116.20;;;5.20;99.90;;;5.11;100.00;101451.91;4965871;28;20296;-88
2022/11/13 08:25:34;;;;;;;126.43;112.22;;;5.10;99.90;;;5.13;100.00;101444.09;4960749;28;20233;-84
2022/11/13 08:28:02;;;;;;;138.70;116.00;;;5.10;99.90;;;5.31;100.00;101462.47;4965832;28;20245;-85
2022/11/13 08:30:31;;;;;;;155.75;121.00;;;5.20;99.90;;;5.27;100.00;101457.91;4963661;28;20230;-85
2022/11/13 08:32:58;;;;;;;151.20;136.40;;;5.30;99.90;;;5.33;100.00;101451.22;4973544;28;20225;-85
2022/11/13 08:35:26;;;;;;;126.82;113.43;;;;;;;5.23;100.00;101443.75;4968283;28;20232;-84
2022/11/13 08:38:07;;;;;;;123.47;110.15;;;5.30;99.90;;;5.35;100.00;101446.94;4971042;28;20316;-85
2022/11/13 08:40:35;;;;;;;130.82;113.80;;;5.40;99.90;;;5.49;100.00;101462.41;4965058;28;20306;-85
2022/11/13 08:43:03;;;;;;;124.88;110.93;;;5.40;99.90;;;5.26;100.00;101443.00;4972087;28;20283;-84
2022/11/13 08:45:31;;;;;;;126.93;113.28;;;;;;;5.41;100.00;101434.09;4969982;28;20237;-84
2022/11/13 08:48:03;;;;;;;131.02;114.63;;;5.40;99.90;;;5.45;100.00;101448.25;4960268;28;20228;-85
2022/11/13 08:50:32;;;;;;;127.63;114.40;;;5.50;99.90;;;5.44;100.00;101438.59;4972111;28;20295;-84
2022/11/13 08:53:00;;;;;;;130.85;117.20;;;5.40;99.90;;;5.45;100.00;101435.13;4970236;28;20241;-85
2022/11/13 08:55:28;;;;;;;130.13;116.10;;;;;;;5.55;100.00;101445.22;4959322;28;20225;-85
2022/11/13 08:58:02;;;;;;;137.27;122.32;;;5.70;99.90;;;5.68;100.00;101449.28;4952090;28;20241;-85
2022/11/13 09:00:31;;;;;;;130.50;116.90;;;5.60;99.90;;;5.53;100.00;101430.22;4963270;28;20292;-84
2022/11/13 09:03:00;;;;;;;136.10;121.35;;;5.60;99.90;;;5.67;100.00;101440.53;4965705;28;20230;-86
2022/11/13 09:05:27;;;;;;;132.70;118.88;;;4.70;99.90;;;5.80;100.00;101441.97;4964804;28;20229;-86
2022/11/13 09:08:00;;;;;;;149.30;135.20;;;5.70;99.90;;;5.91;100.00;101450.34;4921833;28;20334;-86
2022/11/13 09:10:28;;;;;;;169.00;154.85;;;5.90;99.90;;;5.84;100.00;101440.38;4955727;28;20286;-85
2022/11/13 09:13:03;;;;;;;132.40;119.07;;;5.80;99.90;;;5.94;100.00;101446.13;4961101;28;20321;-86
2022/11/13 09:15:31;;;;;;;132.32;118.75;;;5.90;99.90;;;6.02;100.00;101441.19;4951570;28;20233;-85
2022/11/13 09:18:01;;;;;;;134.70;120.65;;;6.00;99.90;;;5.93;100.00;101423.31;4965088;28;20229;-84
2022/11/13 09:20:30;;;;;;;137.27;122.97;;;6.10;99.90;;;6.05;100.00;101436.09;4960251;28;20283;-85
2022/11/13 09:23:08;;;;;;;135.48;122.32;;;6.00;99.90;;;6.07;100.00;101437.03;4970613;28;20228;-85
2022/11/13 09:25:36;;;;;;;139.75;126.32;;;6.00;99.90;;;6.05;100.00;101428.22;4966875;28;20240;-85
2022/11/13 09:28:05;;;;;;;141.25;124.25;;;6.10;99.90;;;6.14;100.00;101433.84;4966536;28;20232;-85
2022/11/13 09:30:32;;;;;;;137.20;123.90;;;6.10;99.90;;;6.20;100.00;101434.13;4968661;28;20260;-86
2022/11/13 09:33:01;;;;;;;140.70;126.72;;;6.20;99.90;;;6.31;100.00;101430.22;4963243;28;20221;-85
2022/11/13 09:35:33;;;;;;;141.27;127.97;;;6.30;99.90;;;6.37;100.00;101437.44;4969241;28;20225;-85
2022/11/13 09:38:12;;;;;;;161.95;146.48;;;6.30;99.90;;;6.36;100.00;101431.31;4962749;28;20279;-85
2022/11/13 09:41:25;;;;;;;183.63;167.60;;;6.30;99.90;;;6.36;100.00;101418.16;4966928;28;20260;-85
2022/11/13 09:43:55;;;;;;;156.93;141.63;;;6.40;99.90;;;6.47;100.00;101421.22;4926827;28;20253;-85
2022/11/13 09:46:50;;;;;;;144.27;130.23;;;6.40;99.90;;;6.50;100.00;101413.50;4948847;28;20304;-85
2022/11/13 09:49:32;;;;;;;180.18;163.55;;;6.50;99.90;;;6.51;100.00;101407.41;4967679;28;20255;-86
2022/11/13 09:52:13;;;;;;;141.82;127.65;;;6.50;99.90;;;6.70;100.00;101415.22;4953528;28;20686;-86
2022/11/13 09:54:40;;;;;;;154.95;138.73;;;6.70;99.90;;;6.73;100.00;101412.72;4966625;28;20320;-85
2022/11/13 09:57:58;;;;;;;160.80;144.10;;;6.70;99.90;;;6.79;100.00;101408.53;4959821;28;20236;-84
2022/11/13 10:00:26;;;;;;;153.88;136.63;;;6.70;99.90;;;6.82;100.00;101408.66;4927744;28;20237;-85
2022/11/13 10:03:23;;;;;;;152.57;137.32;;;6.80;99.90;;;6.99;100.00;101423.34;4964968;28;20240;-85
2022/11/13 10:06:22;;;;;;;147.02;132.63;;;6.90;99.90;;;6.86;100.00;101381.63;4967299;28;20221;-84
2022/11/13 10:08:57;;;;;;;150.43;135.25;;;6.90;99.90;;;7.03;100.00;101380.56;4956847;28;20291;-84
2022/11/13 10:11:38;;;;;;;146.63;133.35;;;7.00;99.90;;;7.30;100.00;101386.84;4971238;28;20752;-84
2022/11/13 10:14:23;;;;;;;160.05;143.88;;;7.20;99.90;;;7.47;100.00;101381.31;4966658;28;20267;-85
2022/11/13 10:17:01;;;;;;;157.38;141.65;;;7.30;99.90;;;7.63;100.00;101381.03;4967048;28;20338;-84
2022/11/13 10:19:43;;;;;;;165.63;148.82;;;7.50;99.90;;;7.76;100.00;101374.47;4957217;28;20237;-86